createdAt,value
2023-01-29T00:01:23.876Z,95581.53
2023-01-29T00:03:51.991Z,95588.81
2023-01-29T00:06:19.367Z,95570.69
2023-01-29T00:08:47.071Z,95583.28
2023-01-29T00:11:14.147Z,95589.47
2023-01-29T00:13:40.858Z,95601.09
2023-01-29T00:16:07.732Z,95599.53
2023-01-29T00:18:39.015Z,95594.97
2023-01-29T00:21:13.565Z,95594.84
2023-01-29T00:23:40.549Z,95584.03
2023-01-29T00:26:07.541Z,95580.44
2023-01-29T00:28:35.122Z,95572.47
2023-01-29T00:31:14.393Z,95560.34
2023-01-29T00:33:41.315Z,95560.28
2023-01-29T00:36:11.092Z,95568.09
2023-01-29T00:38:39.106Z,95572.00
2023-01-29T00:41:26.067Z,95587.81
2023-01-29T00:44:11.871Z,95586.34
2023-01-29T00:46:38.999Z,95597.94
2023-01-29T00:49:06.748Z,95589.81
2023-01-29T00:51:34.002Z,95597.97
2023-01-29T00:54:01.222Z,95604.53
2023-01-29T00:56:29.557Z,95599.41
2023-01-29T00:58:56.849Z,95603.50
2023-01-29T01:01:43.380Z,95587.19
2023-01-29T01:04:12.307Z,95582.41
2023-01-29T01:06:40.501Z,95587.50
2023-01-29T01:09:28.598Z,95587.63
2023-01-29T01:11:55.984Z,95597.91
2023-01-29T01:14:22.784Z,95594.88
2023-01-29T01:16:50.010Z,95607.16
2023-01-29T01:19:17.256Z,95603.06
2023-01-29T01:21:47.092Z,95608.81
2023-01-29T01:24:14.893Z,95594.44
2023-01-29T01:26:42.033Z,95580.63
2023-01-29T01:29:09.474Z,95584.03
2023-01-29T01:31:36.269Z,95579.41
2023-01-29T01:34:03.044Z,95600.38
2023-01-29T01:36:32.378Z,95591.25
2023-01-29T01:38:59.262Z,95579.72
2023-01-29T01:41:26.280Z,95603.56
2023-01-29T01:44:01.811Z,95602.59
2023-01-29T01:46:30.005Z,95602.84
2023-01-29T01:49:13.591Z,95604.38
2023-01-29T01:51:46.139Z,95611.59
2023-01-29T01:54:22.460Z,95609.72
2023-01-29T01:56:55.844Z,95607.34
2023-01-29T01:59:23.963Z,95592.41
2023-01-29T02:01:54.401Z,95592.84
2023-01-29T02:04:43.122Z,95604.88
2023-01-29T02:07:31.923Z,95588.59
2023-01-29T02:10:12.412Z,95591.59
2023-01-29T02:12:39.422Z,95590.84
2023-01-29T02:15:07.376Z,95604.34
2023-01-29T02:17:34.391Z,95606.41
2023-01-29T02:20:17.637Z,95606.84
2023-01-29T02:23:03.847Z,95597.09
2023-01-29T02:25:49.066Z,95599.69
2023-01-29T02:28:34.619Z,95614.50
2023-01-29T02:31:26.262Z,95614.03
2023-01-29T02:34:17.816Z,95619.91
2023-01-29T02:36:52.586Z,95629.28
2023-01-29T02:39:34.450Z,95610.00
2023-01-29T02:42:07.626Z,95614.06
2023-01-29T02:44:39.691Z,95611.78
2023-01-29T02:47:18.450Z,95602.81
2023-01-29T02:49:56.722Z,95605.66
2023-01-29T02:52:43.280Z,95599.88
2023-01-29T02:55:15.971Z,95604.47
2023-01-29T02:57:47.746Z,95602.22
2023-01-29T03:00:22.815Z,95599.09
2023-01-29T03:03:00.745Z,95596.34
2023-01-29T03:06:02.276Z,95574.28
2023-01-29T03:08:42.860Z,95567.63
2023-01-29T03:11:15.822Z,95570.22
2023-01-29T03:13:58.319Z,95574.44
2023-01-29T03:16:53.026Z,95574.63
2023-01-29T03:19:32.022Z,95583.69
2023-01-29T03:22:04.835Z,95573.56
2023-01-29T03:24:56.116Z,95569.53
2023-01-29T03:27:49.398Z,95559.22
2023-01-29T03:30:37.190Z,95572.22
2023-01-29T03:33:26.959Z,95547.28
2023-01-29T03:36:00.967Z,95554.25
2023-01-29T03:38:30.023Z,95567.53
2023-01-29T03:41:02.576Z,95566.97
2023-01-29T03:43:38.165Z,95566.16
2023-01-29T03:46:31.488Z,95553.06
2023-01-29T03:49:11.990Z,95551.94
2023-01-29T03:52:01.239Z,95557.69
2023-01-29T03:54:52.866Z,95554.91
2023-01-29T03:57:36.747Z,95577.22
2023-01-29T04:00:38.483Z,95581.31
2023-01-29T04:03:25.226Z,95581.53
2023-01-29T04:06:09.931Z,95587.03
2023-01-29T04:08:56.246Z,95580.28
2023-01-29T04:11:24.828Z,95584.09
2023-01-29T04:13:52.480Z,95577.97
2023-01-29T04:16:31.574Z,95577.69
2023-01-29T04:19:17.290Z,95574.09
2023-01-29T04:21:46.658Z,95568.53
2023-01-29T04:24:14.594Z,95549.72
2023-01-29T04:27:00.304Z,95545.13
2023-01-29T04:29:43.750Z,95545.53
2023-01-29T04:32:20.848Z,95537.72
2023-01-29T04:35:15.582Z,95542.69
2023-01-29T04:38:21.711Z,95544.88
2023-01-29T04:41:03.302Z,95548.59
2023-01-29T04:43:43.910Z,95557.22
2023-01-29T04:46:13.948Z,95561.94
2023-01-29T04:49:17.616Z,95546.16
2023-01-29T04:51:54.821Z,95554.63
2023-01-29T04:54:52.300Z,95544.44
2023-01-29T04:57:34.098Z,95555.38
2023-01-29T05:00:24.062Z,95574.09
2023-01-29T05:02:51.394Z,95566.38
2023-01-29T05:05:20.220Z,95554.78
2023-01-29T05:07:48.735Z,95551.41
2023-01-29T05:10:19.683Z,95556.91
2023-01-29T05:12:53.162Z,95554.59
2023-01-29T05:15:25.649Z,95560.16
2023-01-29T05:17:54.575Z,95554.19
2023-01-29T05:20:21.516Z,95560.69
2023-01-29T05:22:49.271Z,95565.75
2023-01-29T05:25:21.170Z,95571.41
2023-01-29T05:28:11.960Z,95564.84
2023-01-29T05:30:40.044Z,95584.28
2023-01-29T05:33:21.920Z,95587.66
2023-01-29T05:35:49.477Z,95575.06
2023-01-29T05:38:17.451Z,95583.38
2023-01-29T05:40:44.466Z,95593.75
2023-01-29T05:43:22.653Z,95591.69
2023-01-29T05:46:00.400Z,95587.66
2023-01-29T05:48:29.139Z,95594.72
2023-01-29T05:51:03.365Z,95585.75
2023-01-29T05:53:31.230Z,95598.16
2023-01-29T05:56:01.812Z,95597.25
2023-01-29T05:58:31.359Z,95609.78
2023-01-29T06:00:58.571Z,95608.38
2023-01-29T06:03:25.307Z,95591.97
2023-01-29T06:05:52.044Z,95583.94
2023-01-29T06:08:18.797Z,95592.56
2023-01-29T06:10:45.478Z,95605.06
2023-01-29T06:13:12.429Z,95609.38
2023-01-29T06:15:40.824Z,95592.69
2023-01-29T06:18:07.564Z,95587.69
2023-01-29T06:20:34.297Z,95603.00
2023-01-29T06:23:01.444Z,95614.28
2023-01-29T06:25:28.770Z,95623.38
2023-01-29T06:27:57.125Z,95613.09
2023-01-29T06:30:25.908Z,95599.66
2023-01-29T06:32:59.006Z,95609.00
2023-01-29T06:35:26.152Z,95607.81
2023-01-29T06:37:53.021Z,95605.31
2023-01-29T06:40:19.851Z,95610.00
2023-01-29T06:42:46.846Z,95610.59
2023-01-29T06:45:14.249Z,95604.88
2023-01-29T06:47:41.068Z,95607.91
2023-01-29T06:50:08.166Z,95619.19
2023-01-29T06:52:34.851Z,95618.13
2023-01-29T06:55:01.916Z,95624.38
2023-01-29T06:57:30.185Z,95614.09
2023-01-29T06:59:56.950Z,95609.25
2023-01-29T07:02:23.840Z,95622.03
2023-01-29T07:04:50.680Z,95621.94
2023-01-29T07:07:18.551Z,95622.44
2023-01-29T07:09:45.288Z,95608.56
2023-01-29T07:12:12.080Z,95598.56
2023-01-29T07:14:38.746Z,95605.09
2023-01-29T07:17:05.591Z,95602.88
2023-01-29T07:19:32.327Z,95602.59
2023-01-29T07:22:02.460Z,95607.38
2023-01-29T07:24:29.644Z,95603.25
2023-01-29T07:26:56.944Z,95612.50
2023-01-29T07:29:23.771Z,95601.84
2023-01-29T07:31:50.650Z,95592.06
2023-01-29T07:34:17.467Z,95595.31
2023-01-29T07:36:44.608Z,95582.78
2023-01-29T07:39:11.329Z,95582.72
2023-01-29T07:41:38.103Z,95563.00
2023-01-29T07:44:15.185Z,95565.28
2023-01-29T07:46:41.906Z,95546.38
2023-01-29T07:49:08.683Z,95561.28
2023-01-29T07:51:35.434Z,95572.81
2023-01-29T07:54:02.475Z,95569.94
2023-01-29T07:56:29.512Z,95571.19
2023-01-29T07:58:56.522Z,95566.22
2023-01-29T08:01:23.386Z,95554.63
2023-01-29T08:03:51.390Z,95543.28
2023-01-29T08:06:19.341Z,95546.38
2023-01-29T08:08:46.092Z,95558.84
2023-01-29T08:11:12.900Z,95547.47
2023-01-29T08:13:39.770Z,95552.78
2023-01-29T08:16:06.976Z,95557.22
2023-01-29T08:18:34.093Z,95560.94
2023-01-29T08:21:01.554Z,95549.59
2023-01-29T08:23:28.517Z,95551.25
2023-01-29T08:25:55.479Z,95568.03
2023-01-29T08:28:22.331Z,95602.16
2023-01-29T08:30:49.127Z,95604.28
2023-01-29T08:33:17.547Z,95605.44
2023-01-29T08:35:52.008Z,95609.59
2023-01-29T08:38:19.223Z,95615.91
2023-01-29T08:40:46.082Z,95599.19
2023-01-29T08:43:13.973Z,95613.00
2023-01-29T08:45:42.787Z,95608.63
2023-01-29T08:48:10.287Z,95616.91
2023-01-29T08:50:37.768Z,95624.22
2023-01-29T08:53:08.250Z,95643.94
2023-01-29T08:55:41.900Z,95659.19
2023-01-29T08:58:10.846Z,95650.50
2023-01-29T09:00:38.545Z,95653.47
2023-01-29T09:03:07.733Z,95658.75
2023-01-29T09:05:35.308Z,95660.28
2023-01-29T09:08:03.068Z,95689.81
2023-01-29T09:10:30.276Z,95687.38
2023-01-29T09:12:56.955Z,95687.78
2023-01-29T09:15:24.178Z,95704.72
2023-01-29T09:17:51.310Z,95699.41
2023-01-29T09:20:19.517Z,95704.03
2023-01-29T09:22:47.200Z,95711.91
2023-01-29T09:25:14.662Z,95712.16
2023-01-29T09:27:42.044Z,95723.41
2023-01-29T09:30:09.665Z,95731.13
2023-01-29T09:32:53.908Z,95723.63
2023-01-29T09:35:24.729Z,95717.81
2023-01-29T09:37:52.066Z,95718.63
2023-01-29T09:40:29.383Z,95677.69
2023-01-29T09:43:04.638Z,95670.94
2023-01-29T09:45:31.690Z,95674.09
2023-01-29T09:48:05.805Z,95674.78
2023-01-29T09:50:41.865Z,95681.59
2023-01-29T09:53:20.036Z,95684.00
2023-01-29T09:55:53.005Z,95688.59
2023-01-29T09:58:31.514Z,95674.75
2023-01-29T10:01:17.025Z,95675.00
2023-01-29T10:03:59.070Z,95676.81
2023-01-29T10:06:50.527Z,95685.91
2023-01-29T10:09:31.583Z,95679.81
2023-01-29T10:12:07.589Z,95663.66
2023-01-29T10:15:03.896Z,95677.03
2023-01-29T10:17:36.722Z,95674.81
2023-01-29T10:20:18.880Z,95670.03
2023-01-29T10:22:51.424Z,95667.47
2023-01-29T10:25:21.536Z,95662.75
2023-01-29T10:27:53.286Z,95665.97
2023-01-29T10:30:29.903Z,95661.53
2023-01-29T10:33:01.586Z,95663.78
2023-01-29T10:35:35.655Z,95667.59
2023-01-29T10:38:27.870Z,95654.41
2023-01-29T10:41:02.598Z,95654.22
2023-01-29T10:43:47.219Z,95652.56
2023-01-29T10:46:36.175Z,95647.88
2023-01-29T10:49:48.484Z,95646.88
2023-01-29T10:52:40.647Z,95643.94
2023-01-29T10:55:19.552Z,95650.34
2023-01-29T10:58:07.742Z,95653.44
2023-01-29T11:00:39.521Z,95645.97
2023-01-29T11:03:33.650Z,95621.00
2023-01-29T11:06:03.527Z,95623.41
2023-01-29T11:08:40.110Z,95622.38
2023-01-29T11:11:12.966Z,95635.44
2023-01-29T11:13:54.909Z,95637.22
2023-01-29T11:16:21.616Z,95625.88
2023-01-29T11:18:49.910Z,95625.13
2023-01-29T11:21:16.957Z,95629.13
2023-01-29T11:23:43.812Z,95623.66
2023-01-29T11:26:19.455Z,95629.25
2023-01-29T11:28:48.751Z,95632.22
2023-01-29T11:31:27.477Z,95635.38
2023-01-29T11:34:04.119Z,95617.81
2023-01-29T11:36:39.246Z,95635.97
2023-01-29T11:39:08.916Z,95627.47
2023-01-29T11:41:54.251Z,95625.69
2023-01-29T11:44:33.079Z,95620.50
2023-01-29T11:47:18.747Z,95612.16
2023-01-29T11:49:51.039Z,95623.69
2023-01-29T11:52:21.258Z,95611.13
2023-01-29T11:55:03.721Z,95609.09
2023-01-29T11:57:36.110Z,95600.03
2023-01-29T12:00:07.407Z,95594.16
2023-01-29T12:02:42.314Z,95579.56
2023-01-29T12:05:21.166Z,95583.53
2023-01-29T12:07:51.530Z,95571.84
2023-01-29T12:10:42.483Z,95569.91
2023-01-29T12:13:20.140Z,95550.38
2023-01-29T12:15:48.532Z,95540.47
2023-01-29T12:18:38.031Z,95542.63
2023-01-29T12:21:34.293Z,95521.56
2023-01-29T12:24:16.312Z,95528.63
2023-01-29T12:27:01.120Z,95520.09
2023-01-29T12:29:41.123Z,95503.22
2023-01-29T12:32:36.070Z,95497.09
2023-01-29T12:35:28.530Z,95479.47
2023-01-29T12:38:08.158Z,95493.56
2023-01-29T12:40:42.284Z,95490.16
2023-01-29T12:43:17.187Z,95510.13
2023-01-29T12:45:48.150Z,95507.38
2023-01-29T12:48:23.515Z,95514.63
2023-01-29T12:50:53.375Z,95507.31
2023-01-29T12:53:32.673Z,95508.81
2023-01-29T12:56:25.520Z,95499.72
2023-01-29T12:58:55.970Z,95497.88
2023-01-29T13:01:36.823Z,95484.00
2023-01-29T13:04:32.623Z,95474.66
2023-01-29T13:07:12.892Z,95476.72
2023-01-29T13:09:45.289Z,95476.66
2023-01-29T13:12:18.132Z,95466.22
2023-01-29T13:15:03.748Z,95455.19
2023-01-29T13:17:43.025Z,95468.56
2023-01-29T13:20:18.956Z,95476.22
2023-01-29T13:22:48.055Z,95478.78
2023-01-29T13:25:17.752Z,95463.44
2023-01-29T13:27:47.749Z,95455.66
2023-01-29T13:30:31.881Z,95465.00
2023-01-29T13:33:11.126Z,95461.97
2023-01-29T13:35:45.188Z,95458.28
2023-01-29T13:38:28.594Z,95432.28
2023-01-29T13:41:05.152Z,95443.19
2023-01-29T13:43:41.610Z,95438.03
2023-01-29T13:46:13.397Z,95440.63
2023-01-29T13:48:47.151Z,95438.03
2023-01-29T13:51:20.207Z,95431.34
2023-01-29T13:53:58.582Z,95423.75
2023-01-29T13:56:44.694Z,95433.94
2023-01-29T13:59:59.511Z,95418.97
2023-01-29T14:02:28.638Z,95435.84
2023-01-29T14:05:32.383Z,95446.41
2023-01-29T14:08:09.379Z,95427.06
2023-01-29T14:10:37.693Z,95420.16
2023-01-29T14:13:04.358Z,95423.75
2023-01-29T14:15:36.356Z,95429.78
2023-01-29T14:18:06.228Z,95430.72
2023-01-29T14:20:45.489Z,95427.94
2023-01-29T14:23:47.381Z,95427.59
2023-01-29T14:26:20.374Z,95408.50
2023-01-29T14:28:59.119Z,95399.03
2023-01-29T14:31:49.994Z,95402.81
2023-01-29T14:34:23.127Z,95418.34
2023-01-29T14:36:55.676Z,95422.31
2023-01-29T14:39:30.052Z,95422.19
2023-01-29T14:41:57.986Z,95422.41
2023-01-29T14:44:55.740Z,95425.44
2023-01-29T14:47:28.591Z,95424.69
2023-01-29T14:49:58.544Z,95427.41
2023-01-29T14:52:36.830Z,95439.88
2023-01-29T14:55:08.078Z,95435.88
2023-01-29T14:57:36.870Z,95427.84
2023-01-29T15:00:07.692Z,95433.25
2023-01-29T15:02:45.535Z,95436.16
2023-01-29T15:05:19.565Z,95437.00
2023-01-29T15:07:57.188Z,95431.66
2023-01-29T15:10:29.194Z,95425.25
2023-01-29T15:13:09.404Z,95388.25
2023-01-29T15:15:57.360Z,95415.44
2023-01-29T15:18:35.152Z,95425.47
2023-01-29T15:21:05.804Z,95431.25
2023-01-29T15:23:34.370Z,95422.50
2023-01-29T15:26:05.095Z,95417.97
2023-01-29T15:28:34.249Z,95403.66
2023-01-29T15:31:09.971Z,95410.41
2023-01-29T15:33:40.338Z,95421.06
2023-01-29T15:36:08.803Z,95414.97
2023-01-29T15:38:36.353Z,95431.09
2023-01-29T15:41:19.308Z,95419.50
2023-01-29T15:43:57.942Z,95429.28
2023-01-29T15:46:28.413Z,95432.75
2023-01-29T15:48:59.638Z,95432.66
2023-01-29T15:51:28.048Z,95439.25
2023-01-29T15:54:07.423Z,95434.13
2023-01-29T15:56:44.598Z,95432.59
2023-01-29T15:59:34.707Z,95427.31
2023-01-29T16:02:26.634Z,95428.88
2023-01-29T16:04:54.055Z,95429.00
2023-01-29T16:07:21.067Z,95433.50
2023-01-29T16:09:48.850Z,95445.25
2023-01-29T16:12:15.958Z,95448.28
2023-01-29T16:14:43.648Z,95445.16
2023-01-29T16:17:22.638Z,95447.72
2023-01-29T16:19:59.717Z,95441.25
2023-01-29T16:22:31.383Z,95446.81
2023-01-29T16:25:02.966Z,95442.31
2023-01-29T16:27:31.987Z,95448.88
2023-01-29T16:29:58.991Z,95443.66
2023-01-29T16:32:25.776Z,95451.72
2023-01-29T16:34:58.313Z,95451.50
2023-01-29T16:37:30.022Z,95459.59
2023-01-29T16:39:57.825Z,95459.03
2023-01-29T16:42:28.466Z,95460.28
2023-01-29T16:44:58.393Z,95464.63
2023-01-29T16:47:39.254Z,95469.59
2023-01-29T16:50:40.663Z,95472.47
2023-01-29T16:53:23.314Z,95471.81
2023-01-29T16:55:52.961Z,95475.84
2023-01-29T16:58:23.078Z,95482.97
2023-01-29T17:00:54.424Z,95477.50
2023-01-29T17:03:21.741Z,95488.41
2023-01-29T17:05:50.965Z,95491.13
2023-01-29T17:08:38.322Z,95495.38
2023-01-29T17:11:07.256Z,95498.94
2023-01-29T17:13:43.817Z,95509.59
2023-01-29T17:16:29.368Z,95493.28
2023-01-29T17:19:35.758Z,95485.72
2023-01-29T17:22:12.357Z,95492.13
2023-01-29T17:24:43.883Z,95488.66
2023-01-29T17:27:28.243Z,95490.06
2023-01-29T17:29:55.366Z,95496.22
2023-01-29T17:32:22.606Z,95491.66
2023-01-29T17:34:51.029Z,95491.53
2023-01-29T17:37:30.201Z,95486.56
2023-01-29T17:40:18.364Z,95498.19
2023-01-29T17:42:45.356Z,95493.00
2023-01-29T17:45:13.117Z,95494.16
2023-01-29T17:47:40.249Z,95488.50
2023-01-29T17:50:21.397Z,95498.34
2023-01-29T17:52:54.300Z,95499.44
2023-01-29T17:55:21.230Z,95492.88
2023-01-29T17:57:48.170Z,95486.66
2023-01-29T18:00:27.467Z,95487.34
2023-01-29T18:02:55.816Z,95483.38
2023-01-29T18:05:42.671Z,95496.38
2023-01-29T18:13:15.212Z,95472.69
2023-01-29T18:21:52.629Z,95476.34
2023-01-29T18:23:17.242Z,95479.38
2023-01-29T18:25:45.301Z,95469.78
2023-01-29T18:28:20.191Z,95483.91
2023-01-29T18:30:47.937Z,95483.25
2023-01-29T18:33:16.685Z,95472.16
2023-01-29T18:35:47.848Z,95475.97
2023-01-29T18:38:15.510Z,95476.28
2023-01-29T18:40:44.589Z,95480.75
2023-01-29T18:43:12.001Z,95476.81
2023-01-29T18:45:39.331Z,95471.41
2023-01-29T18:48:06.853Z,95467.69
2023-01-29T18:50:34.541Z,95458.94
2023-01-29T18:53:01.825Z,95467.31
2023-01-29T18:55:29.008Z,95473.47
2023-01-29T18:58:27.173Z,95473.53
2023-01-29T19:00:45.291Z,95466.13
2023-01-29T19:03:12.062Z,95466.41
2023-01-29T19:05:39.132Z,95478.72
2023-01-29T19:08:07.020Z,95477.19
2023-01-29T19:10:34.537Z,95471.19
2023-01-29T19:13:02.193Z,95472.03
2023-01-29T19:15:29.987Z,95474.41
2023-01-29T19:17:57.440Z,95471.94
2023-01-29T19:20:25.311Z,95475.19
2023-01-29T19:22:52.640Z,95479.81
2023-01-29T19:25:20.051Z,95486.25
2023-01-29T19:27:48.504Z,95481.81
2023-01-29T19:30:17.521Z,95474.16
2023-01-29T19:32:44.628Z,95469.63
2023-01-29T19:35:12.003Z,95473.78
2023-01-29T19:37:39.229Z,95474.75
2023-01-29T19:40:08.346Z,95471.19
2023-01-29T19:42:37.878Z,95479.72
2023-01-29T19:45:06.164Z,95463.31
2023-01-29T19:47:43.345Z,95455.72
2023-01-29T19:50:12.633Z,95454.34
2023-01-29T19:52:51.245Z,95457.81
2023-01-29T19:55:21.415Z,95450.69
2023-01-29T19:57:50.235Z,95448.31
2023-01-29T20:00:18.995Z,95458.34
2023-01-29T20:02:46.793Z,95461.88
2023-01-29T20:05:18.500Z,95441.06
2023-01-29T20:07:46.703Z,95464.53
2023-01-29T20:10:17.663Z,95452.84
2023-01-29T20:12:48.092Z,95447.31
2023-01-29T20:15:16.423Z,95454.53
2023-01-29T20:17:45.927Z,95456.81
2023-01-29T20:20:14.114Z,95458.22
2023-01-29T20:22:42.758Z,95452.56
2023-01-29T20:25:13.681Z,95449.78
2023-01-29T20:27:41.582Z,95457.06
2023-01-29T20:30:10.181Z,95454.63
2023-01-29T20:32:38.210Z,95460.66
2023-01-29T20:35:05.850Z,95463.84
2023-01-29T20:37:33.513Z,95452.25
2023-01-29T20:40:00.644Z,95455.91
2023-01-29T20:42:28.210Z,95460.38
2023-01-29T20:44:55.786Z,95457.63
2023-01-29T20:47:24.246Z,95458.56
2023-01-29T20:49:51.897Z,95452.84
2023-01-29T20:52:19.583Z,95448.84
2023-01-29T20:54:46.727Z,95454.94
2023-01-29T20:57:14.146Z,95458.69
2023-01-29T20:59:41.389Z,95454.44
2023-01-29T21:02:12.188Z,95450.69
2023-01-29T21:04:39.999Z,95458.97
2023-01-29T21:07:08.009Z,95444.31
2023-01-29T21:09:35.286Z,95450.44
2023-01-29T21:12:05.450Z,95435.56
2023-01-29T21:14:32.905Z,95440.63
2023-01-29T21:17:00.982Z,95442.09
2023-01-29T21:19:29.224Z,95440.94
2023-01-29T21:21:58.078Z,95435.28
2023-01-29T21:24:25.413Z,95440.06
2023-01-29T21:26:56.655Z,95450.25
2023-01-29T21:29:23.842Z,95448.47
2023-01-29T21:31:50.968Z,95446.59
2023-01-29T21:34:17.860Z,95449.19
2023-01-29T21:36:46.821Z,95447.34
2023-01-29T21:39:26.698Z,95453.31
2023-01-29T21:42:12.530Z,95449.41
2023-01-29T21:44:39.468Z,95457.97
2023-01-29T21:50:16.632Z,95442.41
2023-01-29T21:52:43.700Z,95451.69
2023-01-29T21:55:17.467Z,95449.63
2023-01-29T22:01:53.407Z,95424.34
2023-01-29T22:04:23.295Z,95434.06
2023-01-29T22:07:12.195Z,95425.19
2023-01-29T22:09:54.177Z,95416.38
2023-01-29T22:12:24.716Z,95409.13
2023-01-29T22:14:52.022Z,95398.56
2023-01-29T22:17:49.969Z,95412.41
2023-01-29T22:20:44.819Z,95405.00
2023-01-29T22:23:12.804Z,95399.50
2023-01-29T22:25:39.621Z,95401.09
2023-01-29T22:28:07.508Z,95394.59
2023-01-29T22:30:34.326Z,95404.69
2023-01-29T22:33:02.077Z,95408.59
2023-01-29T22:35:28.866Z,95407.09
2023-01-29T22:37:55.612Z,95394.97
2023-01-29T22:40:22.897Z,95392.47
2023-01-29T22:42:49.735Z,95396.97
2023-01-29T22:45:16.591Z,95398.56
2023-01-29T22:47:43.514Z,95408.59
2023-01-29T22:50:10.999Z,95395.94
2023-01-29T22:52:43.000Z,95394.06
2023-01-29T22:55:11.137Z,95395.91
2023-01-29T22:57:38.997Z,95382.13
2023-01-29T23:00:09.703Z,95384.97
2023-01-29T23:02:37.368Z,95388.59
2023-01-29T23:05:04.881Z,95387.59
2023-01-29T23:07:31.640Z,95391.13
2023-01-29T23:09:58.724Z,95388.09
2023-01-29T23:12:25.424Z,95381.19
2023-01-29T23:14:52.345Z,95374.28
2023-01-29T23:17:19.301Z,95377.75
2023-01-29T23:19:46.121Z,95374.06
2023-01-29T23:22:13.497Z,95376.00
2023-01-29T23:24:40.243Z,95366.94
2023-01-29T23:27:25.182Z,95368.09
2023-01-29T23:29:51.886Z,95376.69
2023-01-29T23:32:20.282Z,95356.81
2023-01-29T23:34:47.665Z,95350.66
2023-01-29T23:37:14.547Z,95352.06
2023-01-29T23:39:41.297Z,95357.28
2023-01-29T23:42:08.339Z,95355.47
2023-01-29T23:44:35.890Z,95349.88
2023-01-29T23:47:02.969Z,95357.91
2023-01-29T23:49:29.660Z,95352.22
2023-01-29T23:51:56.357Z,95350.44
2023-01-29T23:54:23.674Z,95349.31
2023-01-29T23:56:50.419Z,95354.38
2023-01-29T23:59:18.001Z,95348.94
